sensor_id;sensor_type;location;lat;lon;timestamp;P1;durP1;ratioP1;P2;durP2;ratioP2
66581;SDS011;53438;48.898;2.308;2023-06-22T03:02:55;4.32;;;2.60;;
66581;SDS011;53438;48.898;2.308;2023-06-22T03:05:21;4.82;;;2.65;;
66581;SDS011;53438;48.898;2.308;2023-06-22T03:07:46;5.97;;;2.87;;
66581;SDS011;53438;48.898;2.308;2023-06-22T03:10:12;7.50;;;3.10;;
66581;SDS011;53438;48.898;2.308;2023-06-22T03:12:39;6.13;;;3.07;;
66581;SDS011;53438;48.898;2.308;2023-06-22T03:15:05;5.07;;;3.15;;
66581;SDS011;53438;48.898;2.308;2023-06-22T03:17:32;6.20;;;2.78;;
66581;SDS011;53438;48.898;2.308;2023-06-22T03:19:58;6.68;;;3.17;;
66581;SDS011;53438;48.898;2.308;2023-06-22T03:22:24;5.60;;;3.10;;
66581;SDS011;53438;48.898;2.308;2023-06-22T03:24:49;5.27;;;3.40;;
66581;SDS011;53438;48.898;2.308;2023-06-22T03:27:14;6.37;;;3.07;;
66581;SDS011;53438;48.898;2.308;2023-06-22T03:29:40;5.53;;;2.80;;
66581;SDS011;53438;48.898;2.308;2023-06-22T03:32:05;6.27;;;3.33;;
66581;SDS011;53438;48.898;2.308;2023-06-22T03:34:31;5.55;;;2.97;;
66581;SDS011;53438;48.898;2.308;2023-06-22T03:36:59;5.30;;;3.33;;
66581;SDS011;53438;48.898;2.308;2023-06-22T03:39:24;6.63;;;3.07;;
66581;SDS011;53438;48.898;2.308;2023-06-22T03:41:50;4.70;;;3.30;;
66581;SDS011;53438;48.898;2.308;2023-06-22T03:44:15;4.23;;;3.23;;
66581;SDS011;53438;48.898;2.308;2023-06-22T03:46:40;4.82;;;3.20;;
66581;SDS011;53438;48.898;2.308;2023-06-22T03:49:06;6.37;;;3.27;;
66581;SDS011;53438;48.898;2.308;2023-06-22T03:51:32;6.17;;;3.00;;
66581;SDS011;53438;48.898;2.308;2023-06-22T03:53:57;6.70;;;3.17;;
66581;SDS011;53438;48.898;2.308;2023-06-22T03:56:23;5.97;;;3.50;;
66581;SDS011;53438;48.898;2.308;2023-06-22T03:58:48;5.23;;;3.40;;
66581;SDS011;53438;48.898;2.308;2023-06-22T04:01:14;6.05;;;3.35;;
66581;SDS011;53438;48.898;2.308;2023-06-22T04:03:40;6.97;;;2.92;;
66581;SDS011;53438;48.898;2.308;2023-06-22T04:06:06;6.10;;;3.30;;
66581;SDS011;53438;48.898;2.308;2023-06-22T04:08:31;6.68;;;3.78;;
66581;SDS011;53438;48.898;2.308;2023-06-22T04:10:56;10.23;;;3.77;;
66581;SDS011;53438;48.898;2.308;2023-06-22T04:13:22;8.93;;;3.73;;
66581;SDS011;53438;48.898;2.308;2023-06-22T04:15:47;7.27;;;3.77;;
66581;SDS011;53438;48.898;2.308;2023-06-22T04:18:12;7.10;;;3.50;;
66581;SDS011;53438;48.898;2.308;2023-06-22T04:20:38;6.40;;;3.50;;
66581;SDS011;53438;48.898;2.308;2023-06-22T04:23:04;8.88;;;4.47;;
66581;SDS011;53438;48.898;2.308;2023-06-22T04:25:29;8.17;;;3.50;;
66581;SDS011;53438;48.898;2.308;2023-06-22T04:27:54;6.07;;;3.70;;
66581;SDS011;53438;48.898;2.308;2023-06-22T04:30:20;7.30;;;3.70;;
66581;SDS011;53438;48.898;2.308;2023-06-22T04:32:45;7.78;;;4.22;;
66581;SDS011;53438;48.898;2.308;2023-06-22T04:35:21;8.50;;;3.70;;
66581;SDS011;53438;48.898;2.308;2023-06-22T04:37:47;6.85;;;3.88;;
66581;SDS011;53438;48.898;2.308;2023-06-22T04:40:14;8.18;;;4.22;;
66581;SDS011;53438;48.898;2.308;2023-06-22T04:42:40;8.57;;;3.90;;
66581;SDS011;53438;48.898;2.308;2023-06-22T04:45:05;10.60;;;5.00;;
66581;SDS011;53438;48.898;2.308;2023-06-22T04:47:31;10.48;;;4.45;;
66581;SDS011;53438;48.898;2.308;2023-06-22T04:49:56;8.33;;;4.57;;
66581;SDS011;53438;48.898;2.308;2023-06-22T04:52:21;9.83;;;4.97;;
66581;SDS011;53438;48.898;2.308;2023-06-22T04:54:47;7.40;;;4.90;;
66581;SDS011;53438;48.898;2.308;2023-06-22T04:57:20;8.27;;;4.93;;
66581;SDS011;53438;48.898;2.308;2023-06-22T04:59:45;7.40;;;4.67;;
66581;SDS011;53438;48.898;2.308;2023-06-22T05:02:11;7.65;;;4.88;;
66581;SDS011;53438;48.898;2.308;2023-06-22T05:04:36;12.00;;;5.57;;
66581;SDS011;53438;48.898;2.308;2023-06-22T05:07:03;8.27;;;4.53;;
66581;SDS011;53438;48.898;2.308;2023-06-22T05:09:29;9.70;;;5.37;;
66581;SDS011;53438;48.898;2.308;2023-06-22T05:11:54;9.63;;;5.10;;
66581;SDS011;53438;48.898;2.308;2023-06-22T05:14:21;13.25;;;5.70;;
66581;SDS011;53438;48.898;2.308;2023-06-22T05:16:48;8.88;;;5.32;;
66581;SDS011;53438;48.898;2.308;2023-06-22T05:19:14;10.73;;;5.50;;
66581;SDS011;53438;48.898;2.308;2023-06-22T05:21:39;12.50;;;5.67;;
66581;SDS011;53438;48.898;2.308;2023-06-22T05:24:04;10.27;;;5.60;;
66581;SDS011;53438;48.898;2.308;2023-06-22T05:26:31;10.20;;;5.57;;
66581;SDS011;53438;48.898;2.308;2023-06-22T05:28:59;11.48;;;5.07;;
66581;SDS011;53438;48.898;2.308;2023-06-22T05:31:25;13.15;;;6.28;;
66581;SDS011;53438;48.898;2.308;2023-06-22T05:33:51;12.67;;;6.10;;
66581;SDS011;53438;48.898;2.308;2023-06-22T05:36:18;11.15;;;6.55;;
66581;SDS011;53438;48.898;2.308;2023-06-22T05:38:50;12.88;;;6.63;;
66581;SDS011;53438;48.898;2.308;2023-06-22T05:41:16;17.02;;;6.70;;
66581;SDS011;53438;48.898;2.308;2023-06-22T05:43:41;11.20;;;6.55;;
66581;SDS011;53438;48.898;2.308;2023-06-22T05:46:06;11.17;;;7.40;;
66581;SDS011;53438;48.898;2.308;2023-06-22T05:48:32;13.67;;;7.53;;
66581;SDS011;53438;48.898;2.308;2023-06-22T05:50:58;12.13;;;6.77;;
66581;SDS011;53438;48.898;2.308;2023-06-22T05:53:23;12.18;;;7.40;;
66581;SDS011;53438;48.898;2.308;2023-06-22T05:55:49;12.50;;;7.70;;
66581;SDS011;53438;48.898;2.308;2023-06-22T05:58:14;12.27;;;7.73;;
66581;SDS011;53438;48.898;2.308;2023-06-22T06:00:40;11.10;;;7.07;;
66581;SDS011;53438;48.898;2.308;2023-06-22T06:03:06;12.13;;;7.53;;
66581;SDS011;53438;48.898;2.308;2023-06-22T06:05:33;14.57;;;8.50;;
66581;SDS011;53438;48.898;2.308;2023-06-22T06:08:03;14.90;;;7.68;;
66581;SDS011;53438;48.898;2.308;2023-06-22T06:10:30;14.10;;;8.27;;
66581;SDS011;53438;48.898;2.308;2023-06-22T06:12:56;16.25;;;8.52;;
66581;SDS011;53438;48.898;2.308;2023-06-22T06:15:21;15.50;;;8.15;;
66581;SDS011;53438;48.898;2.308;2023-06-22T06:20:13;17.75;;;8.50;;
66581;SDS011;53438;48.898;2.308;2023-06-22T06:22:39;14.13;;;9.27;;
66581;SDS011;53438;48.898;2.308;2023-06-22T06:25:05;17.63;;;9.97;;
66581;SDS011;53438;48.898;2.308;2023-06-22T06:27:30;16.30;;;7.87;;
66581;SDS011;53438;48.898;2.308;2023-06-22T06:29:56;18.98;;;9.50;;
66581;SDS011;53438;48.898;2.308;2023-06-22T06:32:21;20.27;;;9.20;;
66581;SDS011;53438;48.898;2.308;2023-06-22T06:34:48;18.50;;;9.20;;
66581;SDS011;53438;48.898;2.308;2023-06-22T06:37:13;15.73;;;9.60;;
66581;SDS011;53438;48.898;2.308;2023-06-22T06:39:39;17.50;;;10.33;;
66581;SDS011;53438;48.898;2.308;2023-06-22T06:42:04;16.90;;;9.77;;
66581;SDS011;53438;48.898;2.308;2023-06-22T06:44:30;17.30;;;9.30;;
66581;SDS011;53438;48.898;2.308;2023-06-22T06:46:56;16.75;;;10.77;;
66581;SDS011;53438;48.898;2.308;2023-06-22T06:49:21;21.70;;;11.43;;
66581;SDS011;53438;48.898;2.308;2023-06-22T06:51:47;17.63;;;9.87;;
66581;SDS011;53438;48.898;2.308;2023-06-22T06:54:12;20.80;;;11.20;;
66581;SDS011;53438;48.898;2.308;2023-06-22T06:56:37;21.07;;;10.87;;
66581;SDS011;53438;48.898;2.308;2023-06-22T06:59:03;17.80;;;10.90;;
66581;SDS011;53438;48.898;2.308;2023-06-22T07:01:28;15.90;;;10.15;;
66581;SDS011;53438;48.898;2.308;2023-06-22T07:03:58;21.85;;;11.65;;
66581;SDS011;53438;48.898;2.308;2023-06-22T07:06:23;17.52;;;10.77;;
66581;SDS011;53438;48.898;2.308;2023-06-22T07:08:53;18.00;;;11.00;;
66581;SDS011;53438;48.898;2.308;2023-06-22T07:11:20;18.60;;;11.15;;
66581;SDS011;53438;48.898;2.308;2023-06-22T07:13:45;17.73;;;11.50;;
66581;SDS011;53438;48.898;2.308;2023-06-22T07:16:10;26.03;;;13.90;;
66581;SDS011;53438;48.898;2.308;2023-06-22T07:18:36;19.13;;;12.23;;
66581;SDS011;53438;48.898;2.308;2023-06-22T07:21:01;21.23;;;13.05;;
66581;SDS011;53438;48.898;2.308;2023-06-22T07:23:27;26.70;;;11.93;;
66581;SDS011;53438;48.898;2.308;2023-06-22T07:25:53;20.95;;;13.48;;
66581;SDS011;53438;48.898;2.308;2023-06-22T07:28:18;22.58;;;12.90;;
66581;SDS011;53438;48.898;2.308;2023-06-22T07:30:44;20.57;;;13.27;;
66581;SDS011;53438;48.898;2.308;2023-06-22T07:33:09;24.00;;;14.13;;
66581;SDS011;53438;48.898;2.308;2023-06-22T07:35:35;23.50;;;15.07;;
66581;SDS011;53438;48.898;2.308;2023-06-22T07:38:00;22.40;;;14.70;;
66581;SDS011;53438;48.898;2.308;2023-06-22T07:40:26;26.87;;;14.43;;
66581;SDS011;53438;48.898;2.308;2023-06-22T07:42:51;24.83;;;14.13;;
66581;SDS011;53438;48.898;2.308;2023-06-22T07:45:18;22.30;;;13.40;;
66581;SDS011;53438;48.898;2.308;2023-06-22T07:47:43;33.83;;;15.30;;
66581;SDS011;53438;48.898;2.308;2023-06-22T07:50:08;28.30;;;16.67;;
66581;SDS011;53438;48.898;2.308;2023-06-22T07:52:34;26.97;;;16.43;;
66581;SDS011;53438;48.898;2.308;2023-06-22T07:55:00;27.13;;;16.25;;
66581;SDS011;53438;48.898;2.308;2023-06-22T07:57:25;28.47;;;17.37;;
66581;SDS011;53438;48.898;2.308;2023-06-22T07:59:57;28.83;;;16.27;;
66581;SDS011;53438;48.898;2.308;2023-06-22T08:02:23;26.48;;;16.05;;
66581;SDS011;53438;48.898;2.308;2023-06-22T08:04:49;31.30;;;18.73;;
66581;SDS011;53438;48.898;2.308;2023-06-22T08:07:15;29.17;;;18.33;;
66581;SDS011;53438;48.898;2.308;2023-06-22T08:09:45;31.17;;;17.52;;
66581;SDS011;53438;48.898;2.308;2023-06-22T08:12:12;33.40;;;18.37;;
66581;SDS011;53438;48.898;2.308;2023-06-22T08:14:38;32.20;;;17.77;;
66581;SDS011;53438;48.898;2.308;2023-06-22T08:17:03;33.63;;;18.90;;
66581;SDS011;53438;48.898;2.308;2023-06-22T08:19:29;35.77;;;20.13;;
66581;SDS011;53438;48.898;2.308;2023-06-22T08:21:54;32.67;;;18.93;;
66581;SDS011;53438;48.898;2.308;2023-06-22T08:24:20;35.57;;;19.10;;
66581;SDS011;53438;48.898;2.308;2023-06-22T08:26:45;37.00;;;19.30;;
66581;SDS011;53438;48.898;2.308;2023-06-22T08:29:11;35.92;;;19.58;;
66581;SDS011;53438;48.898;2.308;2023-06-22T08:31:36;32.07;;;18.90;;
66581;SDS011;53438;48.898;2.308;2023-06-22T08:34:01;34.77;;;19.50;;
66581;SDS011;53438;48.898;2.308;2023-06-22T08:36:27;36.83;;;20.17;;
66581;SDS011;53438;48.898;2.308;2023-06-22T08:38:57;37.22;;;20.00;;
66581;SDS011;53438;48.898;2.308;2023-06-22T08:41:27;34.58;;;19.35;;
66581;SDS011;53438;48.898;2.308;2023-06-22T08:43:53;34.92;;;20.27;;
66581;SDS011;53438;48.898;2.308;2023-06-22T08:46:19;35.33;;;20.57;;
66581;SDS011;53438;48.898;2.308;2023-06-22T08:48:48;36.67;;;20.53;;
66581;SDS011;53438;48.898;2.308;2023-06-22T08:51:13;35.15;;;19.58;;
66581;SDS011;53438;48.898;2.308;2023-06-22T08:53:39;33.53;;;19.60;;
66581;SDS011;53438;48.898;2.308;2023-06-22T08:56:04;38.07;;;18.80;;
66581;SDS011;53438;48.898;2.308;2023-06-22T08:58:30;30.02;;;19.95;;
66581;SDS011;53438;48.898;2.308;2023-06-22T09:00:55;30.98;;;18.55;;
66581;SDS011;53438;48.898;2.308;2023-06-22T09:03:20;36.30;;;18.57;;
66581;SDS011;53438;48.898;2.308;2023-06-22T09:05:45;31.87;;;19.50;;
66581;SDS011;53438;48.898;2.308;2023-06-22T09:08:11;25.70;;;16.57;;
66581;SDS011;53438;48.898;2.308;2023-06-22T09:10:37;31.77;;;17.60;;
66581;SDS011;53438;48.898;2.308;2023-06-22T09:13:02;29.35;;;17.20;;
66581;SDS011;53438;48.898;2.308;2023-06-22T09:15:27;31.00;;;16.77;;
66581;SDS011;53438;48.898;2.308;2023-06-22T09:17:53;26.83;;;15.33;;
66581;SDS011;53438;48.898;2.308;2023-06-22T09:20:19;27.40;;;15.55;;
66581;SDS011;53438;48.898;2.308;2023-06-22T09:22:44;25.13;;;15.53;;
66581;SDS011;53438;48.898;2.308;2023-06-22T09:25:10;26.10;;;15.10;;
66581;SDS011;53438;48.898;2.308;2023-06-22T09:27:35;25.38;;;14.10;;
66581;SDS011;53438;48.898;2.308;2023-06-22T09:30:01;26.57;;;14.53;;
66581;SDS011;53438;48.898;2.308;2023-06-22T09:32:27;26.15;;;14.73;;
66581;SDS011;53438;48.898;2.308;2023-06-22T09:34:53;21.83;;;14.17;;
66581;SDS011;53438;48.898;2.308;2023-06-22T09:37:18;22.20;;;13.70;;
66581;SDS011;53438;48.898;2.308;2023-06-22T09:39:43;23.10;;;13.63;;
66581;SDS011;53438;48.898;2.308;2023-06-22T09:42:09;24.47;;;14.73;;
66581;SDS011;53438;48.898;2.308;2023-06-22T09:44:34;26.77;;;14.77;;
66581;SDS011;53438;48.898;2.308;2023-06-22T09:46:59;20.77;;;13.23;;
66581;SDS011;53438;48.898;2.308;2023-06-22T09:49:25;20.58;;;13.75;;
66581;SDS011;53438;48.898;2.308;2023-06-22T09:51:51;24.00;;;13.20;;
66581;SDS011;53438;48.898;2.308;2023-06-22T09:54:17;21.60;;;12.98;;
66581;SDS011;53438;48.898;2.308;2023-06-22T09:56:43;24.27;;;13.50;;
66581;SDS011;53438;48.898;2.308;2023-06-22T09:59:08;22.80;;;13.73;;
66581;SDS011;53438;48.898;2.308;2023-06-22T10:01:33;19.30;;;12.10;;
66581;SDS011;53438;48.898;2.308;2023-06-22T10:03:59;23.08;;;12.70;;
66581;SDS011;53438;48.898;2.308;2023-06-22T10:06:24;17.20;;;11.60;;
66581;SDS011;53438;48.898;2.308;2023-06-22T10:08:52;18.73;;;11.60;;
66581;SDS011;53438;48.898;2.308;2023-06-22T10:11:18;18.20;;;11.23;;
66581;SDS011;53438;48.898;2.308;2023-06-22T10:13:43;18.17;;;11.63;;
66581;SDS011;53438;48.898;2.308;2023-06-22T10:16:09;20.97;;;10.57;;
66581;SDS011;53438;48.898;2.308;2023-06-22T10:18:34;19.17;;;11.00;;
66581;SDS011;53438;48.898;2.308;2023-06-22T10:21:00;18.20;;;10.67;;
66581;SDS011;53438;48.898;2.308;2023-06-22T10:23:25;16.20;;;9.52;;
66581;SDS011;53438;48.898;2.308;2023-06-22T10:25:51;17.43;;;9.67;;
66581;SDS011;53438;48.898;2.308;2023-06-22T10:28:16;14.33;;;9.70;;
66581;SDS011;53438;48.898;2.308;2023-06-22T10:30:42;18.08;;;10.15;;
66581;SDS011;53438;48.898;2.308;2023-06-22T10:33:08;16.88;;;9.75;;
66581;SDS011;53438;48.898;2.308;2023-06-22T10:35:34;13.50;;;9.02;;
66581;SDS011;53438;48.898;2.308;2023-06-22T10:38:02;15.98;;;10.43;;
66581;SDS011;53438;48.898;2.308;2023-06-22T10:40:28;14.07;;;9.17;;
66581;SDS011;53438;48.898;2.308;2023-06-22T10:42:54;17.27;;;8.55;;
66581;SDS011;53438;48.898;2.308;2023-06-22T10:45:19;15.00;;;8.90;;
66581;SDS011;53438;48.898;2.308;2023-06-22T10:47:44;14.73;;;8.50;;
66581;SDS011;53438;48.898;2.308;2023-06-22T10:50:10;11.63;;;7.83;;
66581;SDS011;53438;48.898;2.308;2023-06-22T10:52:36;13.30;;;7.45;;
66581;SDS011;53438;48.898;2.308;2023-06-22T10:55:02;15.17;;;7.93;;
66581;SDS011;53438;48.898;2.308;2023-06-22T10:57:27;11.00;;;7.63;;
66581;SDS011;53438;48.898;2.308;2023-06-22T10:59:52;10.37;;;7.60;;
66581;SDS011;53438;48.898;2.308;2023-06-22T11:02:18;13.23;;;8.00;;
66581;SDS011;53438;48.898;2.308;2023-06-22T11:04:43;11.37;;;6.80;;
66581;SDS011;53438;48.898;2.308;2023-06-22T11:07:09;12.93;;;7.63;;
66581;SDS011;53438;48.898;2.308;2023-06-22T11:09:34;11.82;;;7.07;;
66581;SDS011;53438;48.898;2.308;2023-06-22T11:12:00;13.80;;;7.50;;
66581;SDS011;53438;48.898;2.308;2023-06-22T11:14:25;12.77;;;8.00;;
66581;SDS011;53438;48.898;2.308;2023-06-22T11:16:51;12.52;;;7.93;;
66581;SDS011;53438;48.898;2.308;2023-06-22T11:19:16;12.55;;;7.80;;
66581;SDS011;53438;48.898;2.308;2023-06-22T11:21:42;12.63;;;8.03;;
66581;SDS011;53438;48.898;2.308;2023-06-22T11:24:07;10.40;;;7.87;;
66581;SDS011;53438;48.898;2.308;2023-06-22T11:26:33;11.73;;;7.43;;
66581;SDS011;53438;48.898;2.308;2023-06-22T11:28:58;12.57;;;7.70;;
66581;SDS011;53438;48.898;2.308;2023-06-22T11:31:24;11.00;;;6.97;;
66581;SDS011;53438;48.898;2.308;2023-06-22T11:33:49;12.15;;;7.85;;
66581;SDS011;53438;48.898;2.308;2023-06-22T11:36:15;10.77;;;7.73;;
66581;SDS011;53438;48.898;2.308;2023-06-22T11:38:40;12.20;;;7.90;;
66581;SDS011;53438;48.898;2.308;2023-06-22T11:41:06;12.15;;;8.63;;
66581;SDS011;53438;48.898;2.308;2023-06-22T11:43:32;12.27;;;6.70;;
66581;SDS011;53438;48.898;2.308;2023-06-22T11:45:58;11.55;;;7.43;;
66581;SDS011;53438;48.898;2.308;2023-06-22T11:48:26;10.80;;;6.53;;
66581;SDS011;53438;48.898;2.308;2023-06-22T11:50:51;11.23;;;8.55;;
66581;SDS011;53438;48.898;2.308;2023-06-22T11:53:17;12.40;;;8.48;;
66581;SDS011;53438;48.898;2.308;2023-06-22T11:55:43;12.17;;;7.93;;
66581;SDS011;53438;48.898;2.308;2023-06-22T11:58:09;13.50;;;7.60;;
66581;SDS011;53438;48.898;2.308;2023-06-22T12:00:34;10.67;;;8.13;;
66581;SDS011;53438;48.898;2.308;2023-06-22T12:02:59;12.20;;;7.90;;
66581;SDS011;53438;48.898;2.308;2023-06-22T12:05:25;10.33;;;8.23;;
66581;SDS011;53438;48.898;2.308;2023-06-22T12:07:52;11.97;;;8.57;;
66581;SDS011;53438;48.898;2.308;2023-06-22T12:10:18;13.00;;;8.43;;
66581;SDS011;53438;48.898;2.308;2023-06-22T12:12:44;10.23;;;7.57;;
66581;SDS011;53438;48.898;2.308;2023-06-22T12:15:09;13.82;;;8.45;;
66581;SDS011;53438;48.898;2.308;2023-06-22T12:17:35;13.13;;;8.88;;
66581;SDS011;53438;48.898;2.308;2023-06-22T12:20:00;17.33;;;9.50;;
66581;SDS011;53438;48.898;2.308;2023-06-22T12:22:27;16.87;;;8.70;;
66581;SDS011;53438;48.898;2.308;2023-06-22T12:24:52;13.00;;;8.68;;
66581;SDS011;53438;48.898;2.308;2023-06-22T12:27:18;13.60;;;9.10;;
66581;SDS011;53438;48.898;2.308;2023-06-22T12:29:45;14.17;;;8.20;;
66581;SDS011;53438;48.898;2.308;2023-06-22T12:32:11;12.02;;;7.95;;
66581;SDS011;53438;48.898;2.308;2023-06-22T12:34:38;11.88;;;8.50;;
66581;SDS011;53438;48.898;2.308;2023-06-22T12:37:04;11.37;;;8.10;;
66581;SDS011;53438;48.898;2.308;2023-06-22T12:39:31;13.38;;;7.78;;
66581;SDS011;53438;48.898;2.308;2023-06-22T12:41:56;12.40;;;8.15;;
66581;SDS011;53438;48.898;2.308;2023-06-22T12:44:22;14.23;;;7.90;;
66581;SDS011;53438;48.898;2.308;2023-06-22T12:46:47;10.30;;;7.97;;
66581;SDS011;53438;48.898;2.308;2023-06-22T12:49:13;10.87;;;7.37;;
66581;SDS011;53438;48.898;2.308;2023-06-22T12:51:41;12.50;;;7.03;;
66581;SDS011;53438;48.898;2.308;2023-06-22T12:54:08;13.07;;;7.97;;
66581;SDS011;53438;48.898;2.308;2023-06-22T12:56:33;9.57;;;6.50;;
66581;SDS011;53438;48.898;2.308;2023-06-22T12:58:59;10.40;;;7.10;;
66581;SDS011;53438;48.898;2.308;2023-06-22T13:01:27;11.52;;;7.50;;
66581;SDS011;53438;48.898;2.308;2023-06-22T13:03:53;11.40;;;7.93;;
66581;SDS011;53438;48.898;2.308;2023-06-22T13:06:18;13.43;;;8.40;;
66581;SDS011;53438;48.898;2.308;2023-06-22T13:08:44;14.80;;;8.20;;
66581;SDS011;53438;48.898;2.308;2023-06-22T13:11:09;13.93;;;9.07;;
66581;SDS011;53438;48.898;2.308;2023-06-22T13:13:35;12.67;;;8.87;;
66581;SDS011;53438;48.898;2.308;2023-06-22T13:16:00;13.70;;;9.20;;
66581;SDS011;53438;48.898;2.308;2023-06-22T13:18:25;19.10;;;10.40;;
66581;SDS011;53438;48.898;2.308;2023-06-22T13:20:51;14.67;;;10.50;;
66581;SDS011;53438;48.898;2.308;2023-06-22T13:23:19;12.75;;;9.38;;
66581;SDS011;53438;48.898;2.308;2023-06-22T13:25:44;15.37;;;10.43;;
66581;SDS011;53438;48.898;2.308;2023-06-22T13:28:10;15.60;;;10.60;;
66581;SDS011;53438;48.898;2.308;2023-06-22T13:30:37;19.00;;;10.60;;
66581;SDS011;53438;48.898;2.308;2023-06-22T13:33:02;15.10;;;10.53;;
66581;SDS011;53438;48.898;2.308;2023-06-22T13:35:28;16.73;;;10.47;;
66581;SDS011;53438;48.898;2.308;2023-06-22T13:37:53;13.30;;;9.60;;
66581;SDS011;53438;48.898;2.308;2023-06-22T13:40:18;15.70;;;10.20;;
66581;SDS011;53438;48.898;2.308;2023-06-22T13:42:44;17.00;;;10.57;;
66581;SDS011;53438;48.898;2.308;2023-06-22T13:45:09;14.27;;;9.30;;
66581;SDS011;53438;48.898;2.308;2023-06-22T13:47:35;13.98;;;9.75;;
66581;SDS011;53438;48.898;2.308;2023-06-22T13:50:00;15.20;;;8.33;;
66581;SDS011;53438;48.898;2.308;2023-06-22T13:52:25;15.07;;;8.83;;
66581;SDS011;53438;48.898;2.308;2023-06-22T13:54:51;14.80;;;9.13;;
66581;SDS011;53438;48.898;2.308;2023-06-22T13:57:16;13.20;;;8.73;;
66581;SDS011;53438;48.898;2.308;2023-06-22T13:59:41;12.85;;;8.43;;
66581;SDS011;53438;48.898;2.308;2023-06-22T14:02:07;16.58;;;9.45;;
66581;SDS011;53438;48.898;2.308;2023-06-22T14:04:32;12.83;;;7.97;;
66581;SDS011;53438;48.898;2.308;2023-06-22T14:06:58;12.43;;;8.23;;
66581;SDS011;53438;48.898;2.308;2023-06-22T14:09:23;14.77;;;8.25;;
66581;SDS011;53438;48.898;2.308;2023-06-22T14:11:49;14.53;;;8.27;;
66581;SDS011;53438;48.898;2.308;2023-06-22T14:14:14;10.53;;;7.47;;
66581;SDS011;53438;48.898;2.308;2023-06-22T14:16:40;10.80;;;7.17;;
66581;SDS011;53438;48.898;2.308;2023-06-22T14:19:05;10.87;;;7.67;;
66581;SDS011;53438;48.898;2.308;2023-06-22T14:21:30;9.47;;;6.73;;
66581;SDS011;53438;48.898;2.308;2023-06-22T14:23:55;10.15;;;6.43;;
66581;SDS011;53438;48.898;2.308;2023-06-22T14:26:21;10.15;;;6.63;;
66581;SDS011;53438;48.898;2.308;2023-06-22T14:28:48;8.83;;;6.17;;
66581;SDS011;53438;48.898;2.308;2023-06-22T14:31:15;11.32;;;6.47;;
66581;SDS011;53438;48.898;2.308;2023-06-22T14:33:45;8.60;;;5.88;;
66581;SDS011;53438;48.898;2.308;2023-06-22T14:36:13;10.93;;;6.68;;
66581;SDS011;53438;48.898;2.308;2023-06-22T14:38:40;10.55;;;6.20;;
66581;SDS011;53438;48.898;2.308;2023-06-22T14:41:05;11.30;;;6.20;;
66581;SDS011;53438;48.898;2.308;2023-06-22T14:43:31;12.75;;;5.90;;
66581;SDS011;53438;48.898;2.308;2023-06-22T14:45:56;10.20;;;6.10;;
66581;SDS011;53438;48.898;2.308;2023-06-22T14:48:22;10.17;;;6.33;;
66581;SDS011;53438;48.898;2.308;2023-06-22T14:50:47;9.23;;;5.67;;
66581;SDS011;53438;48.898;2.308;2023-06-22T14:53:12;12.30;;;5.53;;
66581;SDS011;53438;48.898;2.308;2023-06-22T14:55:39;8.27;;;5.13;;
66581;SDS011;53438;48.898;2.308;2023-06-22T14:58:04;9.27;;;5.97;;
66581;SDS011;53438;48.898;2.308;2023-06-22T15:00:30;11.13;;;6.30;;
66581;SDS011;53438;48.898;2.308;2023-06-22T15:02:55;9.73;;;5.43;;
66581;SDS011;53438;48.898;2.308;2023-06-22T15:05:20;7.43;;;5.40;;
66581;SDS011;53438;48.898;2.308;2023-06-22T15:07:46;9.73;;;5.13;;
66581;SDS011;53438;48.898;2.308;2023-06-22T15:10:11;8.00;;;4.13;;
66581;SDS011;53438;48.898;2.308;2023-06-22T15:12:36;7.00;;;4.93;;
66581;SDS011;53438;48.898;2.308;2023-06-22T15:15:02;6.93;;;5.03;;
66581;SDS011;53438;48.898;2.308;2023-06-22T15:17:27;7.18;;;5.00;;
66581;SDS011;53438;48.898;2.308;2023-06-22T15:19:55;8.93;;;4.32;;
66581;SDS011;53438;48.898;2.308;2023-06-22T15:22:21;9.75;;;4.50;;
66581;SDS011;53438;48.898;2.308;2023-06-22T15:24:46;8.00;;;5.07;;
66581;SDS011;53438;48.898;2.308;2023-06-22T15:27:13;9.38;;;4.47;;
66581;SDS011;53438;48.898;2.308;2023-06-22T15:29:39;7.50;;;4.50;;
66581;SDS011;53438;48.898;2.308;2023-06-22T15:32:05;10.00;;;4.57;;
66581;SDS011;53438;48.898;2.308;2023-06-22T15:34:31;7.45;;;4.68;;
66581;SDS011;53438;48.898;2.308;2023-06-22T15:36:56;6.93;;;4.38;;
66581;SDS011;53438;48.898;2.308;2023-06-22T15:39:22;10.07;;;4.50;;
66581;SDS011;53438;48.898;2.308;2023-06-22T15:41:49;9.57;;;4.43;;
66581;SDS011;53438;48.898;2.308;2023-06-22T15:44:15;6.60;;;4.00;;
66581;SDS011;53438;48.898;2.308;2023-06-22T15:46:40;6.83;;;4.23;;
66581;SDS011;53438;48.898;2.308;2023-06-22T15:49:05;10.47;;;3.90;;
66581;SDS011;53438;48.898;2.308;2023-06-22T15:51:31;7.17;;;3.53;;
66581;SDS011;53438;48.898;2.308;2023-06-22T15:53:56;6.72;;;4.13;;
66581;SDS011;53438;48.898;2.308;2023-06-22T15:56:22;8.87;;;4.27;;
66581;SDS011;53438;48.898;2.308;2023-06-22T15:58:49;8.35;;;4.18;;
66581;SDS011;53438;48.898;2.308;2023-06-22T16:01:15;6.77;;;3.53;;
66581;SDS011;53438;48.898;2.308;2023-06-22T16:03:40;5.93;;;3.50;;
66581;SDS011;53438;48.898;2.308;2023-06-22T16:06:06;5.97;;;3.10;;
66581;SDS011;53438;48.898;2.308;2023-06-22T16:08:31;7.68;;;4.25;;
66581;SDS011;53438;48.898;2.308;2023-06-22T16:10:58;5.30;;;3.00;;
66581;SDS011;53438;48.898;2.308;2023-06-22T16:13:24;5.55;;;3.72;;
66581;SDS011;53438;48.898;2.308;2023-06-22T16:15:49;11.87;;;3.53;;
66581;SDS011;53438;48.898;2.308;2023-06-22T16:18:15;6.43;;;3.17;;
66581;SDS011;53438;48.898;2.308;2023-06-22T16:20:42;4.15;;;2.58;;
66581;SDS011;53438;48.898;2.308;2023-06-22T16:23:07;3.70;;;2.47;;
66581;SDS011;53438;48.898;2.308;2023-06-22T16:25:32;6.95;;;2.95;;
66581;SDS011;53438;48.898;2.308;2023-06-22T16:27:58;6.20;;;2.88;;
66581;SDS011;53438;48.898;2.308;2023-06-22T16:30:23;5.57;;;2.47;;
66581;SDS011;53438;48.898;2.308;2023-06-22T16:32:49;5.10;;;2.77;;
66581;SDS011;53438;48.898;2.308;2023-06-22T16:35:19;4.25;;;2.47;;
66581;SDS011;53438;48.898;2.308;2023-06-22T16:37:47;4.93;;;2.55;;
66581;SDS011;53438;48.898;2.308;2023-06-22T16:40:13;3.70;;;2.17;;
66581;SDS011;53438;48.898;2.308;2023-06-22T16:42:39;5.25;;;2.83;;
66581;SDS011;53438;48.898;2.308;2023-06-22T16:45:05;4.80;;;3.20;;
66581;SDS011;53438;48.898;2.308;2023-06-22T16:47:31;6.18;;;2.70;;
66581;SDS011;53438;48.898;2.308;2023-06-22T16:49:57;8.40;;;2.88;;
66581;SDS011;53438;48.898;2.308;2023-06-22T16:52:22;4.53;;;2.37;;
66581;SDS011;53438;48.898;2.308;2023-06-22T16:54:48;7.33;;;3.17;;
66581;SDS011;53438;48.898;2.308;2023-06-22T16:57:13;4.67;;;2.23;;
66581;SDS011;53438;48.898;2.308;2023-06-22T16:59:39;8.80;;;2.75;;
66581;SDS011;53438;48.898;2.308;2023-06-22T17:02:05;6.85;;;3.03;;
66581;SDS011;53438;48.898;2.308;2023-06-22T17:04:39;6.07;;;3.35;;
66581;SDS011;53438;48.898;2.308;2023-06-22T17:07:09;4.87;;;2.77;;
66581;SDS011;53438;48.898;2.308;2023-06-22T17:09:37;4.25;;;2.72;;
66581;SDS011;53438;48.898;2.308;2023-06-22T17:12:05;3.42;;;2.40;;
66581;SDS011;53438;48.898;2.308;2023-06-22T17:14:30;5.47;;;2.97;;
66581;SDS011;53438;48.898;2.308;2023-06-22T17:16:56;9.20;;;3.13;;
66581;SDS011;53438;48.898;2.308;2023-06-22T17:19:22;12.52;;;7.68;;
66581;SDS011;53438;48.898;2.308;2023-06-22T17:21:48;4.28;;;3.20;;
66581;SDS011;53438;48.898;2.308;2023-06-22T17:24:17;4.35;;;2.85;;
66581;SDS011;53438;48.898;2.308;2023-06-22T17:26:47;6.07;;;2.85;;
66581;SDS011;53438;48.898;2.308;2023-06-22T17:29:19;4.72;;;3.10;;
66581;SDS011;53438;48.898;2.308;2023-06-22T17:31:44;4.30;;;3.08;;